createdAt,value
2017-11-13T00:01:53.129Z,97933
2017-11-13T00:04:21.205Z,97937
2017-11-13T00:06:49.271Z,97942
2017-11-13T00:09:17.344Z,97943
2017-11-13T00:11:45.417Z,97960
2017-11-13T00:14:13.492Z,97950
2017-11-13T00:16:41.568Z,97960
2017-11-13T00:19:09.648Z,97953
2017-11-13T00:21:37.721Z,97949
2017-11-13T00:24:05.808Z,97942
2017-11-13T00:26:33.879Z,97937
2017-11-13T00:29:01.953Z,97945
2017-11-13T00:31:30.028Z,97936
2017-11-13T00:33:58.864Z,97939
2017-11-13T00:36:27.704Z,97951
2017-11-13T00:38:55.773Z,97955
2017-11-13T00:41:23.849Z,97968
2017-11-13T00:43:51.916Z,97965
2017-11-13T00:46:20.021Z,97953
2017-11-13T00:48:48.100Z,97953
2017-11-13T00:51:16.194Z,97954
2017-11-13T00:53:44.253Z,97965
2017-11-13T00:56:12.344Z,97958
2017-11-13T00:58:40.441Z,97969
2017-11-13T01:01:08.516Z,97978
2017-11-13T01:03:36.588Z,97973
2017-11-13T01:06:04.673Z,97986
2017-11-13T01:08:32.746Z,97986
2017-11-13T01:11:01.602Z,97993
2017-11-13T01:13:29.677Z,97991
2017-11-13T01:15:57.752Z,97976
2017-11-13T01:18:25.817Z,97985
2017-11-13T01:20:53.891Z,97984
2017-11-13T01:23:21.965Z,97981
2017-11-13T01:25:50.036Z,97986
2017-11-13T01:28:18.108Z,97992
2017-11-13T01:30:46.191Z,97992
2017-11-13T01:33:14.270Z,98002
2017-11-13T01:35:42.402Z,98005
2017-11-13T01:38:10.468Z,98015
2017-11-13T01:40:38.552Z,98011
2017-11-13T01:43:07.401Z,98022
2017-11-13T01:45:36.249Z,98016
2017-11-13T01:48:04.325Z,98015
2017-11-13T01:50:32.401Z,98023
2017-11-13T01:53:00.476Z,98031
2017-11-13T01:55:28.553Z,98034
2017-11-13T01:57:56.624Z,98024
2017-11-13T02:00:24.701Z,98024
2017-11-13T02:02:52.769Z,98024
2017-11-13T02:05:20.981Z,98029
2017-11-13T02:07:49.821Z,98028
2017-11-13T02:10:17.902Z,98035
2017-11-13T02:12:45.988Z,98042
2017-11-13T02:15:14.069Z,98039
2017-11-13T02:17:42.145Z,98048
2017-11-13T02:20:11.005Z,98046
2017-11-13T02:22:39.081Z,98052
2017-11-13T02:25:07.198Z,98048
2017-11-13T02:27:36.065Z,98042
2017-11-13T02:30:04.140Z,98051
2017-11-13T02:32:32.209Z,98061
2017-11-13T02:35:00.282Z,98055
2017-11-13T02:37:28.352Z,98056
2017-11-13T02:39:56.516Z,98068
2017-11-13T02:42:24.601Z,98059
2017-11-13T02:44:52.673Z,98071
2017-11-13T02:47:20.744Z,98081
2017-11-13T02:49:48.830Z,98089
2017-11-13T02:52:17.670Z,98094
2017-11-13T02:54:45.752Z,98095
2017-11-13T02:57:13.825Z,98112
2017-11-13T02:59:41.900Z,98111
2017-11-13T03:02:09.970Z,98105
2017-11-13T03:04:38.068Z,98109
2017-11-13T03:07:06.140Z,98113
2017-11-13T03:09:34.214Z,98112
2017-11-13T03:12:02.286Z,98124
2017-11-13T03:14:30.357Z,98127
2017-11-13T03:16:58.431Z,98129
2017-11-13T03:19:26.506Z,98130
2017-11-13T03:21:55.370Z,98137
2017-11-13T03:24:23.441Z,98140
2017-11-13T03:26:51.520Z,98150
2017-11-13T03:29:19.616Z,98148
2017-11-13T03:31:48.468Z,98156
2017-11-13T03:34:16.548Z,98162
2017-11-13T03:36:44.649Z,98158
2017-11-13T03:39:13.484Z,98164
2017-11-13T03:41:42.312Z,98164
2017-11-13T03:44:10.402Z,98164
2017-11-13T03:46:39.245Z,98171
2017-11-13T03:49:08.084Z,98168
2017-11-13T03:51:36.929Z,98167
2017-11-13T03:54:05.004Z,98167
2017-11-13T03:56:33.072Z,98173
2017-11-13T03:59:01.157Z,98176
2017-11-13T04:01:29.228Z,98180
2017-11-13T04:03:57.305Z,98184
2017-11-13T04:06:25.377Z,98187
2017-11-13T04:08:53.460Z,98189
2017-11-13T04:11:21.529Z,98197
2017-11-13T04:13:49.842Z,98201
2017-11-13T04:16:18.680Z,98216
2017-11-13T04:18:46.761Z,98218
2017-11-13T04:21:14.828Z,98218
2017-11-13T04:23:42.899Z,98222
2017-11-13T04:26:10.980Z,98217
2017-11-13T04:28:39.044Z,98230
2017-11-13T04:31:07.131Z,98231
2017-11-13T04:33:35.204Z,98230
2017-11-13T04:36:03.288Z,98238
2017-11-13T04:38:31.365Z,98246
2017-11-13T04:41:00.211Z,98253
2017-11-13T04:43:28.286Z,98254
2017-11-13T04:45:56.369Z,98264
2017-11-13T04:48:24.441Z,98263
2017-11-13T04:50:52.512Z,98270
2017-11-13T04:53:20.589Z,98269
2017-11-13T04:55:48.656Z,98274
2017-11-13T04:58:16.741Z,98287
2017-11-13T05:00:44.812Z,98297
2017-11-13T05:03:12.898Z,98299
2017-11-13T05:05:40.965Z,98296
2017-11-13T05:08:09.047Z,98308
2017-11-13T05:10:37.118Z,98324
2017-11-13T05:13:05.189Z,98331
2017-11-13T05:15:33.262Z,98321
2017-11-13T05:18:02.136Z,98331
2017-11-13T05:20:30.216Z,98318
2017-11-13T05:22:58.280Z,98330
2017-11-13T05:25:26.357Z,98339
2017-11-13T05:27:54.441Z,98340
2017-11-13T05:30:22.526Z,98363
2017-11-13T05:32:51.370Z,98352
2017-11-13T05:35:19.666Z,98344
2017-11-13T05:37:47.736Z,98335
2017-11-13T05:40:15.812Z,98338
2017-11-13T05:42:43.888Z,98333
2017-11-13T05:45:11.974Z,98336
2017-11-13T05:47:40.809Z,98343
2017-11-13T05:50:09.668Z,98334
2017-11-13T05:52:38.528Z,98332
2017-11-13T05:55:06.605Z,98335
2017-11-13T05:57:34.685Z,98331
2017-11-13T06:00:02.748Z,98340
2017-11-13T06:02:30.829Z,98343
2017-11-13T06:04:58.893Z,98351
2017-11-13T06:07:26.973Z,98359
2017-11-13T06:09:55.038Z,98355
2017-11-13T06:12:23.172Z,98360
2017-11-13T06:14:51.246Z,98364
2017-11-13T06:17:19.345Z,98374
2017-11-13T06:19:47.406Z,98375
2017-11-13T06:22:15.479Z,98374
2017-11-13T06:24:43.681Z,98386
2017-11-13T06:27:11.753Z,98397
2017-11-13T06:29:39.884Z,98404
2017-11-13T06:32:07.963Z,98403
2017-11-13T06:34:36.046Z,98414
2017-11-13T06:37:04.116Z,98416
2017-11-13T06:39:32.206Z,98434
2017-11-13T06:42:00.294Z,98440
2017-11-13T06:44:29.149Z,98445
2017-11-13T06:46:57.229Z,98461
2017-11-13T06:49:25.313Z,98473
2017-11-13T06:51:53.408Z,98478
2017-11-13T06:54:22.241Z,98470
2017-11-13T06:56:50.327Z,98489
2017-11-13T06:59:18.409Z,98492
2017-11-13T07:01:46.480Z,98494
2017-11-13T07:04:14.553Z,98497
2017-11-13T07:06:42.647Z,98495
2017-11-13T07:09:11.500Z,98503
2017-11-13T07:11:40.341Z,98509
2017-11-13T07:14:09.179Z,98515
2017-11-13T07:16:37.270Z,98514
2017-11-13T07:19:05.341Z,98517
2017-11-13T07:21:33.434Z,98524
2017-11-13T07:24:01.507Z,98522
2017-11-13T07:26:29.581Z,98534
2017-11-13T07:28:57.662Z,98548
2017-11-13T07:31:26.510Z,98552
2017-11-13T07:33:54.588Z,98554
2017-11-13T07:36:22.661Z,98552
2017-11-13T07:38:53.665Z,98555
2017-11-13T07:41:21.743Z,98559
2017-11-13T07:43:49.860Z,98560
2017-11-13T07:46:17.928Z,98567
2017-11-13T07:48:46.017Z,98573
2017-11-13T07:51:14.079Z,98576
2017-11-13T07:53:42.163Z,98580
2017-11-13T07:56:10.232Z,98583
2017-11-13T07:58:38.333Z,98580
2017-11-13T08:01:06.402Z,98577
2017-11-13T08:03:35.240Z,98590
2017-11-13T08:06:03.316Z,98586
2017-11-13T08:08:31.395Z,98595
2017-11-13T08:10:59.556Z,98589
2017-11-13T08:13:28.157Z,98589
2017-11-13T08:15:56.245Z,98597
2017-11-13T08:18:24.314Z,98604
2017-11-13T08:20:52.421Z,98603
2017-11-13T08:23:21.234Z,98607
2017-11-13T08:25:49.299Z,98600
2017-11-13T08:28:18.153Z,98606
2017-11-13T08:30:47.007Z,98614
2017-11-13T08:33:15.113Z,98620
2017-11-13T08:35:43.970Z,98625
2017-11-13T08:38:12.069Z,98622
2017-11-13T08:40:40.168Z,98638
2017-11-13T08:43:09.005Z,98624
2017-11-13T08:45:37.085Z,98628
2017-11-13T08:48:05.160Z,98636
2017-11-13T08:50:33.226Z,98635
2017-11-13T08:53:01.294Z,98635
2017-11-13T08:55:29.370Z,98643
2017-11-13T08:57:57.457Z,98650
2017-11-13T09:00:25.540Z,98640
2017-11-13T09:02:54.401Z,98651
2017-11-13T09:05:23.084Z,98641
2017-11-13T09:07:51.181Z,98631
2017-11-13T09:10:19.250Z,98636
2017-11-13T09:12:47.328Z,98628
2017-11-13T09:15:15.397Z,98633
2017-11-13T09:17:43.463Z,98635
2017-11-13T09:20:11.549Z,98634
2017-11-13T09:22:39.624Z,98638
2017-11-13T09:25:07.680Z,98631
2017-11-13T09:27:35.764Z,98644
2017-11-13T09:30:04.615Z,98649
2017-11-13T09:32:32.697Z,98663
2017-11-13T09:35:00.785Z,98665
2017-11-13T09:37:28.852Z,98665
2017-11-13T09:39:56.944Z,98662
2017-11-13T09:42:25.986Z,98676
2017-11-13T09:44:54.058Z,98670
2017-11-13T09:47:22.161Z,98680
2017-11-13T09:49:50.292Z,98685
2017-11-13T09:52:18.361Z,98684
2017-11-13T09:54:46.426Z,98684
2017-11-13T09:57:14.506Z,98688
2017-11-13T09:59:42.601Z,98688
2017-11-13T10:02:11.449Z,98681
2017-11-13T10:04:40.297Z,98683
2017-11-13T10:07:08.386Z,98686
2017-11-13T10:09:36.444Z,98679
2017-11-13T10:12:04.521Z,98681
2017-11-13T10:14:32.596Z,98701
2017-11-13T10:17:00.677Z,98698
2017-11-13T10:19:28.760Z,98711
2017-11-13T10:21:56.832Z,98706
2017-11-13T10:24:25.672Z,98722
2017-11-13T10:26:53.756Z,98716
2017-11-13T10:29:21.825Z,98715
2017-11-13T10:31:50.648Z,98712
2017-11-13T10:34:18.724Z,98717
2017-11-13T10:36:46.788Z,98719
2017-11-13T10:39:14.886Z,98726
2017-11-13T10:41:43.749Z,98725
2017-11-13T10:44:11.817Z,98723
2017-11-13T10:46:39.893Z,98730
2017-11-13T10:49:08.114Z,98720
2017-11-13T10:51:36.973Z,98723
2017-11-13T10:54:05.749Z,98724
2017-11-13T10:56:33.828Z,98734
2017-11-13T10:59:01.893Z,98736
2017-11-13T11:01:29.978Z,98727
2017-11-13T11:03:58.042Z,98724
2017-11-13T11:06:26.125Z,98721
2017-11-13T11:08:55.093Z,98714
2017-11-13T11:11:23.241Z,98718
2017-11-13T11:13:51.618Z,98717
2017-11-13T11:16:33.823Z,98726
2017-11-13T11:19:01.891Z,98732
2017-11-13T11:21:30.484Z,98724
2017-11-13T11:23:58.553Z,98737
2017-11-13T11:26:29.999Z,98737
2017-11-13T11:29:08.062Z,98750
2017-11-13T11:31:39.672Z,98754
2017-11-13T11:34:08.213Z,98764
2017-11-13T11:36:50.807Z,98771
2017-11-13T11:39:18.876Z,98780
2017-11-13T11:41:46.946Z,98769
2017-11-13T11:44:27.119Z,98762
2017-11-13T11:46:55.961Z,98771
2017-11-13T11:49:24.038Z,98767
2017-11-13T11:51:52.118Z,98773
2017-11-13T11:54:21.116Z,98769
2017-11-13T11:57:04.060Z,98758
2017-11-13T11:59:32.895Z,98772
2017-11-13T12:02:00.980Z,98760
2017-11-13T12:04:29.064Z,98763
2017-11-13T12:06:57.142Z,98756
2017-11-13T12:09:25.222Z,98754
2017-11-13T12:11:53.505Z,98760
2017-11-13T12:14:21.584Z,98766
2017-11-13T12:16:49.716Z,98753
2017-11-13T12:19:17.801Z,98751
2017-11-13T12:21:45.872Z,98755
2017-11-13T12:24:13.945Z,98755
2017-11-13T12:26:42.023Z,98754
2017-11-13T12:29:10.097Z,98769
2017-11-13T12:31:38.164Z,98776
2017-11-13T12:34:06.232Z,98772
2017-11-13T12:36:34.306Z,98762
2017-11-13T12:39:02.504Z,98775
2017-11-13T12:41:30.573Z,98777
2017-11-13T12:43:58.671Z,98780
2017-11-13T12:46:27.518Z,98778
2017-11-13T12:48:55.588Z,98774
2017-11-13T12:51:24.348Z,98780
2017-11-13T12:53:52.440Z,98780
2017-11-13T12:56:20.521Z,98784
2017-11-13T12:58:59.503Z,98782
2017-11-13T13:01:27.577Z,98786
2017-11-13T13:03:56.434Z,98791
2017-11-13T13:06:24.917Z,98801
2017-11-13T13:08:52.989Z,98793
2017-11-13T13:11:21.066Z,98799
2017-11-13T13:13:49.179Z,98800
2017-11-13T13:16:17.285Z,98803
2017-11-13T13:18:45.353Z,98802
2017-11-13T13:21:14.265Z,98804
2017-11-13T13:23:42.356Z,98803
2017-11-13T13:26:12.381Z,98806
2017-11-13T13:28:41.996Z,98809
2017-11-13T13:31:10.833Z,98815
2017-11-13T13:33:39.025Z,98824
2017-11-13T13:36:07.135Z,98819
2017-11-13T13:38:35.211Z,98830
2017-11-13T13:41:04.253Z,98826
2017-11-13T13:43:32.333Z,98829
2017-11-13T13:46:00.393Z,98838
2017-11-13T13:48:28.465Z,98826
2017-11-13T13:50:56.536Z,98827
2017-11-13T13:53:24.613Z,98823
2017-11-13T13:55:52.685Z,98839
2017-11-13T13:58:20.765Z,98831
2017-11-13T14:00:48.828Z,98833
2017-11-13T14:03:16.898Z,98839
2017-11-13T14:05:44.973Z,98842
2017-11-13T14:08:13.852Z,98849
2017-11-13T14:10:41.928Z,98856
2017-11-13T14:13:10.027Z,98861
2017-11-13T14:15:48.064Z,98871
2017-11-13T14:18:16.924Z,98867
2017-11-13T14:20:44.997Z,98869
2017-11-13T14:23:13.065Z,98869
2017-11-13T14:25:41.179Z,98876
2017-11-13T14:28:09.294Z,98865
2017-11-13T14:30:37.381Z,98868
2017-11-13T14:33:05.458Z,98879
2017-11-13T14:35:33.543Z,98877
2017-11-13T14:38:01.613Z,98878
2017-11-13T14:40:29.749Z,98877
2017-11-13T14:42:57.815Z,98895
2017-11-13T14:45:25.900Z,98897
2017-11-13T14:47:54.050Z,98897
2017-11-13T14:50:22.133Z,98909
2017-11-13T14:52:50.205Z,98911
2017-11-13T14:55:19.108Z,98904
2017-11-13T14:57:47.219Z,98917
2017-11-13T15:00:15.260Z,98910
2017-11-13T15:02:43.413Z,98909
2017-11-13T15:05:12.232Z,98922
2017-11-13T15:07:40.313Z,98928
2017-11-13T15:10:08.381Z,98940
2017-11-13T15:12:36.483Z,98945
2017-11-13T15:15:05.316Z,98936
2017-11-13T15:17:33.384Z,98937
2017-11-13T15:20:01.458Z,98961
2017-11-13T15:22:29.556Z,98955
2017-11-13T15:24:57.629Z,98955
2017-11-13T15:27:25.701Z,98963
2017-11-13T15:29:53.793Z,98968
2017-11-13T15:32:21.856Z,98982
2017-11-13T15:34:49.936Z,98987
2017-11-13T15:37:18.835Z,98990
2017-11-13T15:39:47.673Z,98991
2017-11-13T15:42:15.731Z,99002
2017-11-13T15:44:43.822Z,99007
2017-11-13T15:47:11.992Z,99004
2017-11-13T15:49:40.063Z,99008
2017-11-13T15:52:08.149Z,99007
2017-11-13T15:54:36.302Z,99020
2017-11-13T15:57:05.200Z,99018
2017-11-13T15:59:33.299Z,99017
2017-11-13T16:02:01.380Z,99017
2017-11-13T16:04:29.440Z,99021
2017-11-13T16:06:57.538Z,99020
2017-11-13T16:09:26.367Z,99020
2017-11-13T16:11:55.221Z,99021
2017-11-13T16:14:24.065Z,99033
2017-11-13T16:16:52.140Z,99039
2017-11-13T16:19:20.215Z,99044
2017-11-13T16:21:48.415Z,99056
2017-11-13T16:24:16.483Z,99064
2017-11-13T16:26:44.556Z,99071
2017-11-13T16:29:12.628Z,99077
2017-11-13T16:31:40.779Z,99080
2017-11-13T16:34:09.664Z,99091
2017-11-13T16:36:37.754Z,99090
2017-11-13T16:39:05.847Z,99090
2017-11-13T16:41:33.916Z,99095
2017-11-13T16:44:01.993Z,99101
2017-11-13T16:46:30.833Z,99117
2017-11-13T16:48:59.676Z,99113
2017-11-13T16:51:28.617Z,99132
2017-11-13T16:53:56.704Z,99137
2017-11-13T16:56:24.776Z,99142
2017-11-13T16:58:52.912Z,99151
2017-11-13T17:01:20.972Z,99149
2017-11-13T17:03:49.818Z,99147
2017-11-13T17:06:17.889Z,99164
2017-11-13T17:08:45.976Z,99173
2017-11-13T17:11:14.064Z,99173
2017-11-13T17:13:42.180Z,99176
2017-11-13T17:16:10.253Z,99186
2017-11-13T17:18:38.324Z,99178
2017-11-13T17:21:06.413Z,99180
2017-11-13T17:23:34.494Z,99184
2017-11-13T17:26:02.592Z,99201
2017-11-13T17:28:30.668Z,99201
2017-11-13T17:30:58.740Z,99204
2017-11-13T17:33:26.814Z,99202
2017-11-13T17:35:54.884Z,99213
2017-11-13T17:38:22.957Z,99210
2017-11-13T17:40:51.027Z,99206
2017-11-13T17:43:19.101Z,99211
2017-11-13T17:45:48.184Z,99218
2017-11-13T17:48:16.254Z,99224
2017-11-13T17:50:44.329Z,99225
2017-11-13T17:53:12.401Z,99232
2017-11-13T17:55:40.469Z,99233
2017-11-13T17:58:08.545Z,99234
2017-11-13T18:00:36.617Z,99246
2017-11-13T18:03:04.700Z,99240
2017-11-13T18:05:32.760Z,99255
2017-11-13T18:08:00.835Z,99247
2017-11-13T18:10:28.913Z,99260
2017-11-13T18:12:56.980Z,99256
2017-11-13T18:15:25.053Z,99259
2017-11-13T18:17:53.148Z,99264
2017-11-13T18:20:21.988Z,99258
2017-11-13T18:22:50.052Z,99270
2017-11-13T18:25:18.164Z,99268
2017-11-13T18:27:46.224Z,99277
2017-11-13T18:30:14.295Z,99283
2017-11-13T18:32:42.374Z,99275
2017-11-13T18:35:10.455Z,99283
2017-11-13T18:37:38.560Z,99278
2017-11-13T18:40:06.641Z,99292
2017-11-13T18:42:34.704Z,99296
2017-11-13T18:45:02.817Z,99305
2017-11-13T18:47:30.888Z,99306
2017-11-13T18:49:58.964Z,99304
2017-11-13T18:52:27.036Z,99313
2017-11-13T18:54:55.100Z,99325
2017-11-13T18:57:23.181Z,99323
2017-11-13T18:59:51.253Z,99326
2017-11-13T19:02:19.333Z,99330
2017-11-13T19:04:47.403Z,99340
2017-11-13T19:07:15.492Z,99344
2017-11-13T19:09:43.564Z,99364
2017-11-13T19:12:11.801Z,99364
2017-11-13T19:14:39.878Z,99371
2017-11-13T19:17:07.944Z,99369
2017-11-13T19:19:36.788Z,99374
2017-11-13T19:22:05.649Z,99378
2017-11-13T19:24:33.765Z,99369
2017-11-13T19:27:01.837Z,99375
2017-11-13T19:29:29.916Z,99372
2017-11-13T19:31:57.998Z,99377
2017-11-13T19:34:26.100Z,99377
2017-11-13T19:36:54.168Z,99387
2017-11-13T19:39:22.253Z,99381
2017-11-13T19:41:50.341Z,99385
2017-11-13T19:44:18.412Z,99386
2017-11-13T19:46:46.498Z,99397
2017-11-13T19:49:15.332Z,99393
2017-11-13T19:51:43.399Z,99405
2017-11-13T19:54:11.455Z,99402
2017-11-13T19:56:39.543Z,99408
2017-11-13T19:59:07.619Z,99419
2017-11-13T20:01:36.482Z,99421
2017-11-13T20:04:05.326Z,99433
2017-11-13T20:06:33.397Z,99425
2017-11-13T20:09:01.481Z,99424
2017-11-13T20:11:30.471Z,99432
2017-11-13T20:13:58.560Z,99430
2017-11-13T20:16:26.615Z,99444
2017-11-13T20:18:54.690Z,99437
2017-11-13T20:21:22.751Z,99436
2017-11-13T20:23:50.832Z,99442
2017-11-13T20:26:18.917Z,99451
2017-11-13T20:28:47.014Z,99463
2017-11-13T20:31:15.856Z,99468
2017-11-13T20:33:43.952Z,99467
2017-11-13T20:36:12.018Z,99474
2017-11-13T20:38:40.091Z,99484
2017-11-13T20:41:08.169Z,99471
2017-11-13T20:43:36.241Z,99476
2017-11-13T20:46:04.321Z,99473
2017-11-13T20:48:32.383Z,99469
2017-11-13T20:51:00.461Z,99474
2017-11-13T20:53:28.545Z,99475
2017-11-13T20:55:57.384Z,99477
2017-11-13T20:58:25.465Z,99475
2017-11-13T21:00:53.536Z,99487
2017-11-13T21:03:21.636Z,99478
2017-11-13T21:05:49.695Z,99477
2017-11-13T21:08:17.772Z,99481
2017-11-13T21:10:45.856Z,99481
2017-11-13T21:13:13.927Z,99482
2017-11-13T21:15:41.992Z,99490
2017-11-13T21:18:10.068Z,99486
2017-11-13T21:20:38.140Z,99486
2017-11-13T21:23:06.216Z,99487
2017-11-13T21:25:34.292Z,99485
2017-11-13T21:28:02.384Z,99485
2017-11-13T21:30:31.225Z,99486
2017-11-13T21:32:59.312Z,99494
2017-11-13T21:35:28.216Z,99491
2017-11-13T21:37:57.075Z,99488
2017-11-13T21:40:25.150Z,99491
2017-11-13T21:42:53.258Z,99491
2017-11-13T21:45:22.422Z,99492
2017-11-13T21:47:50.492Z,99494
2017-11-13T21:50:18.564Z,99501
2017-11-13T21:52:46.661Z,99513
2017-11-13T21:55:14.719Z,99500
2017-11-13T21:57:42.792Z,99512
2017-11-13T22:00:10.873Z,99517
2017-11-13T22:02:38.950Z,99513
2017-11-13T22:05:07.029Z,99509
2017-11-13T22:07:35.089Z,99518
2017-11-13T22:10:03.195Z,99515
2017-11-13T22:12:31.269Z,99526
2017-11-13T22:14:59.382Z,99523
2017-11-13T22:17:27.459Z,99520
2017-11-13T22:19:55.557Z,99523
2017-11-13T22:22:23.634Z,99517
2017-11-13T22:24:51.714Z,99525
2017-11-13T22:27:20.552Z,99540
2017-11-13T22:29:48.644Z,99530
2017-11-13T22:32:16.709Z,99541
2017-11-13T22:34:44.793Z,99538
2017-11-13T22:37:12.856Z,99548
2017-11-13T22:39:40.941Z,99549
2017-11-13T22:42:09.045Z,99549
2017-11-13T22:44:37.904Z,99538
2017-11-13T22:47:05.977Z,99531
2017-11-13T22:49:35.043Z,99532
2017-11-13T22:52:03.129Z,99529
2017-11-13T22:54:31.201Z,99539
2017-11-13T22:57:00.176Z,99547
2017-11-13T22:59:28.244Z,99540
2017-11-13T23:01:56.377Z,99534
2017-11-13T23:04:25.123Z,99544
2017-11-13T23:06:53.200Z,99555
2017-11-13T23:09:21.264Z,99549
2017-11-13T23:11:49.567Z,99551
2017-11-13T23:14:17.639Z,99560
2017-11-13T23:16:45.712Z,99565
2017-11-13T23:19:13.793Z,99562
2017-11-13T23:21:41.863Z,99546
2017-11-13T23:24:09.940Z,99549
2017-11-13T23:26:38.013Z,99552
2017-11-13T23:29:06.117Z,99544
2017-11-13T23:31:34.176Z,99553
2017-11-13T23:34:03.038Z,99555
2017-11-13T23:36:31.105Z,99557
2017-11-13T23:38:59.189Z,99551
2017-11-13T23:41:27.268Z,99561
2017-11-13T23:43:56.144Z,99551
2017-11-13T23:46:24.244Z,99561
2017-11-13T23:48:53.081Z,99555
2017-11-13T23:51:21.160Z,99554
2017-11-13T23:53:49.233Z,99551
2017-11-13T23:56:17.322Z,99551
2017-11-13T23:58:45.389Z,99556
